Time;durP1;ratioP1;P1;durP2;ratioP2;P2;SDS_P1;SDS_P2;PMS_P1;PMS_P2;Temp;Humidity;BMP_temperature;BMP_pressure;BME280_temperature;BME280_humidity;BME280_pressure;Samples;Min_cycle;Max_cycle;Signal;HPM_P1;HPM_P2
2022/01/25 00:08:46;;;;;;;0.30;0.10;;;0.00;99.90;;;;;;5088867;28;20205;-89
2022/01/25 00:25:30;;;;;;;0.30;0.10;;;-0.30;99.90;;;;;;5089502;28;20209;-89
2022/01/25 00:28:17;;;;;;;0.30;0.10;;;-0.20;99.90;;;;;;5087260;28;20288;-89
2022/01/25 00:30:58;;;;;;;0.30;0.10;;;-0.10;99.90;;;;;;5084410;28;20198;-89
2022/01/25 00:33:25;;;;;;;0.30;0.10;;;-0.10;99.90;;;;;;5089576;28;20528;-89
2022/01/25 00:35:52;;;;;;;4.40;2.00;;;-0.30;99.90;;;;;;5087054;28;20210;-88
2022/01/25 00:38:19;;;;;;;0.30;0.10;;;-0.40;99.90;;;;;;5089769;28;20247;-89
2022/01/25 00:40:46;;;;;;;0.30;0.20;;;-0.50;99.90;;;;;;5089096;28;20257;-89
2022/01/25 00:43:15;;;;;;;0.40;0.30;;;-0.40;99.90;;;;;;5089622;28;20270;-89
2022/01/25 00:45:42;;;;;;;0.30;0.10;;;-0.50;99.90;;;;;;5085892;28;20215;-89
2022/01/25 00:48:18;;;;;;;0.30;0.10;;;-0.50;99.90;;;;;;5089535;28;20206;-89
2022/01/25 00:50:45;;;;;;;0.30;0.10;;;-0.50;99.90;;;;;;5087167;28;20193;-88
2022/01/25 00:55:56;;;;;;;0.30;0.10;;;-0.30;99.90;;;;;;5086515;28;20697;-89
2022/01/25 00:58:24;;;;;;;0.30;0.10;;;-0.30;99.90;;;;;;5087581;28;20685;-88
2022/01/25 01:00:51;;;;;;;0.40;0.40;;;-0.30;99.90;;;;;;5087631;28;20248;-88
2022/01/25 01:03:18;;;;;;;0.30;0.10;;;-0.30;99.90;;;;;;5086139;28;20716;-89
2022/01/25 01:05:46;;;;;;;0.30;0.10;;;-0.30;99.90;;;;;;5088984;28;20251;-88
2022/01/25 01:08:13;;;;;;;0.30;0.10;;;-0.30;99.90;;;;;;5090026;28;20251;-89
2022/01/25 01:10:40;;;;;;;0.30;0.10;;;-0.20;99.90;;;;;;5093245;28;20195;-89
2022/01/25 01:16:05;;;;;;;0.30;0.10;;;-0.20;99.90;;;;;;5061728;28;20211;-90
2022/01/25 01:29:56;;;;;;;0.30;0.10;;;-0.20;99.90;;;;;;5096685;28;20212;-91
2022/01/25 01:32:55;;;;;;;0.30;0.10;;;-0.40;99.90;;;;;;5090666;28;20203;-92
2022/01/25 01:35:41;;;;;;;0.30;0.10;;;-0.30;99.90;;;;;;5083773;28;20199;-89
2022/01/25 01:38:26;;;;;;;0.30;0.10;;;-0.30;99.90;;;;;;5091553;28;20193;-89
2022/01/25 01:41:07;;;;;;;0.30;0.10;;;-0.30;99.90;;;;;;5092668;28;20202;-89
2022/01/25 01:43:34;;;;;;;0.30;0.10;;;-0.30;99.90;;;;;;5093265;28;20214;-89
2022/01/25 01:46:21;;;;;;;0.30;0.10;;;-0.30;99.90;;;;;;5090562;28;20197;-89
2022/01/25 01:48:53;;;;;;;0.30;0.10;;;-0.20;99.90;;;;;;5091991;28;20631;-89
2022/01/25 01:51:28;;;;;;;0.30;0.10;;;-0.20;99.90;;;;;;5090042;28;20206;-90
2022/01/25 01:53:56;;;;;;;0.77;0.65;;;-0.30;99.90;;;;;;5092925;28;20198;-89
2022/01/25 01:56:23;;;;;;;0.30;0.20;;;-0.20;99.90;;;;;;5091294;28;20587;-89
2022/01/25 01:58:52;;;;;;;0.30;0.10;;;-0.20;99.90;;;;;;5091238;28;20259;-89
2022/01/25 02:01:19;;;;;;;0.30;0.10;;;-0.20;99.90;;;;;;5088258;28;20285;-89
2022/01/25 02:03:47;;;;;;;1.45;1.33;;;-0.30;99.90;;;;;;5091631;28;20761;-88
2022/01/25 02:06:15;;;;;;;0.30;0.10;;;-0.30;99.90;;;;;;5089684;28;20194;-89
2022/01/25 02:08:42;;;;;;;0.30;0.10;;;-0.20;99.90;;;;;;5091918;28;20192;-89
2022/01/25 02:11:09;;;;;;;0.30;0.10;;;-0.20;99.90;;;;;;5091450;28;20200;-89
2022/01/25 02:13:38;;;;;;;0.30;0.10;;;-0.20;99.90;;;;;;5088722;28;20198;-88
2022/01/25 02:16:08;;;;;;;0.30;0.10;;;-0.20;99.90;;;;;;5090030;28;20286;-88
2022/01/25 02:24:06;;;;;;;0.30;0.10;;;-0.20;99.90;;;;;;5086192;28;20237;-90
2022/01/25 02:26:33;;;;;;;0.30;0.10;;;-0.20;99.90;;;;;;5088361;28;20199;-88
2022/01/25 02:29:01;;;;;;;0.63;0.63;;;-0.20;99.90;;;;;;5090024;28;20248;-89
2022/01/25 02:31:28;;;;;;;0.30;0.10;;;-0.20;99.90;;;;;;5088472;28;20201;-89
2022/01/25 02:33:55;;;;;;;0.73;0.73;;;-0.30;99.90;;;;;;5091183;28;20203;-89
2022/01/25 02:36:27;;;;;;;0.30;0.20;;;-0.30;99.90;;;;;;5092016;28;20216;-89
2022/01/25 02:38:55;;;;;;;0.30;0.10;;;-0.30;99.90;;;;;;5091190;28;20203;-88
2022/01/25 02:41:22;;;;;;;0.30;0.10;;;-0.20;99.90;;;;;;5089472;28;20200;-89
2022/01/25 02:43:50;;;;;;;0.30;0.10;;;-0.10;99.90;;;;;;5091558;28;20227;-89
2022/01/25 02:48:29;;;;;;;0.30;0.10;;;-0.10;99.90;;;;;;5089556;28;20242;-89
2022/01/25 02:49:09;;;;;;;0.30;0.10;;;0.00;99.90;;;;;;5087058;28;20220;-89
2022/01/25 02:51:40;;;;;;;0.30;0.10;;;-0.10;99.90;;;;;;5091391;28;20288;-89
2022/01/25 02:54:08;;;;;;;0.30;0.10;;;-0.10;99.90;;;;;;5091195;28;20208;-89
2022/01/25 02:56:37;;;;;;;0.30;0.10;;;-0.10;99.90;;;;;;5089905;28;20256;-89
2022/01/25 02:59:06;;;;;;;0.30;0.10;;;-0.10;99.90;;;;;;5090436;28;20225;-89
2022/01/25 03:01:33;;;;;;;0.30;0.10;;;-0.20;99.90;;;;;;5113044;28;20212;-89
2022/01/25 03:04:01;;;;;;;0.30;0.10;;;-0.20;99.90;;;;;;5107993;28;20250;-89
2022/01/25 03:06:28;;;;;;;0.30;0.10;;;-0.30;99.90;;;;;;5109504;28;20220;-89
2022/01/25 03:08:56;;;;;;;0.30;0.10;;;-0.30;99.90;;;;;;5100065;28;20244;-88
2022/01/25 03:11:25;;;;;;;0.40;0.40;;;-0.30;99.90;;;;;;5086492;28;20277;-89
2022/01/25 03:13:54;;;;;;;0.30;0.10;;;-0.30;99.90;;;;;;5091433;28;20205;-89
2022/01/25 03:16:29;;;;;;;0.30;0.20;;;-0.30;99.90;;;;;;5087331;28;20190;-88
2022/01/25 03:18:58;;;;;;;0.30;0.10;;;-0.30;99.90;;;;;;5088803;28;20225;-89
2022/01/25 03:21:37;;;;;;;0.30;0.10;;;-0.30;99.90;;;;;;5091250;28;20207;-89
2022/01/25 03:24:08;;;;;;;0.30;0.10;;;-0.30;99.90;;;;;;5089778;28;20219;-89
2022/01/25 03:26:35;;;;;;;0.30;0.20;;;-0.40;99.90;;;;;;5091277;28;20715;-88
2022/01/25 03:29:03;;;;;;;0.30;0.10;;;-0.30;99.90;;;;;;5090928;28;20190;-89
2022/01/25 03:31:30;;;;;;;0.47;0.47;;;-0.30;99.90;;;;;;5088592;28;20198;-89
2022/01/25 03:33:57;;;;;;;0.30;0.10;;;-0.40;99.90;;;;;;5090211;28;20202;-88
2022/01/25 03:36:24;;;;;;;0.52;0.52;;;-0.40;99.90;;;;;;5090544;28;20272;-89
2022/01/25 03:38:51;;;;;;;0.30;0.10;;;-0.30;99.90;;;;;;5090065;28;20202;-88
2022/01/25 03:41:22;;;;;;;0.30;0.10;;;-0.40;99.90;;;;;;5090064;28;20195;-89
2022/01/25 03:43:53;;;;;;;0.30;0.10;;;-0.40;99.90;;;;;;5090212;28;20307;-89
2022/01/25 03:46:27;;;;;;;0.30;0.10;;;-0.30;99.90;;;;;;5085696;28;20203;-89
2022/01/25 03:51:39;;;;;;;0.30;0.10;;;-0.40;99.90;;;;;;5088536;28;20202;-89
2022/01/25 03:54:06;;;;;;;0.30;0.10;;;-0.40;99.90;;;;;;5089681;28;20323;-88
2022/01/25 03:56:35;;;;;;;0.30;0.10;;;-0.50;99.90;;;;;;5082784;28;20256;-88
2022/01/25 03:59:02;;;;;;;0.30;0.10;;;-0.50;99.90;;;;;;5089684;28;20224;-88
2022/01/25 04:01:30;;;;;;;0.30;0.10;;;-0.40;99.90;;;;;;5083362;28;20202;-89
2022/01/25 04:04:00;;;;;;;0.30;0.10;;;-0.40;99.90;;;;;;5087833;28;20233;-89
2022/01/25 04:06:31;;;;;;;0.30;0.10;;;-0.40;99.90;;;;;;5089393;28;20256;-90
2022/01/25 04:08:59;;;;;;;0.30;0.10;;;-0.40;99.90;;;;;;5087424;28;20230;-89
2022/01/25 04:11:26;;;;;;;0.30;0.10;;;-0.30;99.90;;;;;;5089210;28;20202;-89
2022/01/25 04:13:57;;;;;;;0.30;0.10;;;-0.40;99.90;;;;;;5089222;28;20201;-89
2022/01/25 04:16:28;;;;;;;0.30;0.10;;;-0.50;99.90;;;;;;5088702;28;20210;-89
2022/01/25 04:19:05;;;;;;;0.30;0.10;;;-0.50;99.90;;;;;;5089403;28;20203;-89
2022/01/25 04:27:01;;;;;;;0.30;0.10;;;-0.50;99.90;;;;;;5087832;28;20227;-89
2022/01/25 04:29:29;;;;;;;0.30;0.10;;;-0.40;99.90;;;;;;5086510;28;20203;-89
2022/01/25 04:31:57;;;;;;;0.30;0.10;;;-0.40;99.90;;;;;;5089124;28;20199;-89
2022/01/25 04:34:41;;;;;;;0.30;0.10;;;-0.50;99.90;;;;;;5089527;28;20197;-90
2022/01/25 04:51:11;;;;;;;0.30;0.10;;;-0.50;99.90;;;;;;5088545;28;20230;-89
2022/01/25 04:53:47;;;;;;;0.30;0.10;;;-0.40;99.90;;;;;;5089254;28;20237;-90
2022/01/25 04:56:20;;;;;;;0.30;0.10;;;-0.40;99.90;;;;;;5092641;28;20207;-89
2022/01/25 04:58:54;;;;;;;0.30;0.10;;;-0.30;99.90;;;;;;5092675;28;20777;-88
2022/01/25 05:01:22;;;;;;;0.30;0.10;;;-0.30;99.90;;;;;;5092334;28;20197;-88
2022/01/25 05:04:01;;;;;;;0.30;0.30;;;-0.40;99.90;;;;;;5092465;28;20214;-88
2022/01/25 05:06:30;;;;;;;0.93;0.88;;;-0.30;99.90;;;;;;5092042;28;20224;-88
2022/01/25 05:09:06;;;;;;;0.30;0.10;;;-0.30;99.90;;;;;;5091825;28;20775;-88
2022/01/25 05:11:36;;;;;;;0.30;0.10;;;-0.30;99.90;;;;;;5094125;28;20218;-88
2022/01/25 05:14:23;;;;;;;0.30;0.10;;;-0.20;99.90;;;;;;5093259;28;20190;-89
2022/01/25 05:16:55;;;;;;;0.65;0.65;;;-0.30;99.90;;;;;;5093581;28;20202;-88
2022/01/25 05:22:04;;;;;;;0.30;0.10;;;-0.20;99.90;;;;;;5092060;28;20554;-88
2022/01/25 05:22:26;;;;;;;0.30;0.10;;;-0.30;99.90;;;;;;5089238;28;20289;-88
2022/01/25 05:24:54;;;;;;;0.30;0.10;;;-0.30;99.90;;;;;;5091689;28;20313;-88
2022/01/25 05:27:26;;;;;;;0.30;0.10;;;-0.30;99.90;;;;;;5093045;28;20195;-88
2022/01/25 05:29:53;;;;;;;0.30;0.10;;;-0.30;99.90;;;;;;5092307;28;20518;-87
2022/01/25 05:32:22;;;;;;;0.30;0.20;;;-0.20;99.90;;;;;;5092610;28;20199;-88
2022/01/25 05:34:49;;;;;;;0.30;0.10;;;-0.30;99.90;;;;;;5092163;28;20228;-88
2022/01/25 05:37:16;;;;;;;0.30;0.10;;;-0.20;99.90;;;;;;5087048;28;20206;-88
2022/01/25 05:39:46;;;;;;;0.30;0.10;;;-0.20;99.90;;;;;;5092745;28;20198;-87
2022/01/25 05:42:42;;;;;;;0.30;0.10;;;-0.20;99.90;;;;;;5091048;28;20280;-87
2022/01/25 05:45:26;;;;;;;0.30;0.10;;;-0.30;99.90;;;;;;5083772;28;20322;-87
2022/01/25 05:47:55;;;;;;;0.30;0.10;;;-0.30;99.90;;;;;;5089299;28;20234;-88
2022/01/25 05:50:22;;;;;;;0.30;0.10;;;-0.40;99.90;;;;;;5092667;28;20216;-88
2022/01/25 05:52:49;;;;;;;0.30;0.10;;;-0.30;99.90;;;;;;5089597;28;20205;-89
2022/01/25 05:55:17;;;;;;;0.30;0.10;;;-0.30;99.90;;;;;;5088936;28;20723;-89
2022/01/25 05:57:44;;;;;;;0.40;0.20;;;-0.20;99.90;;;;;;5091898;28;20224;-89
2022/01/25 06:00:11;;;;;;;2.67;1.38;;;-0.10;99.90;;;;;;5089715;28;20296;-89
2022/01/25 06:02:39;;;;;;;0.30;0.10;;;-0.10;99.90;;;;;;5088506;28;20535;-88
2022/01/25 06:05:08;;;;;;;0.30;0.10;;;-0.10;99.90;;;;;;5089552;28;20279;-88
2022/01/25 06:07:35;;;;;;;1.52;0.65;;;-0.10;99.90;;;;;;5091478;28;20200;-88
2022/01/25 06:10:03;;;;;;;0.30;0.10;;;0.00;99.90;;;;;;5091425;28;20577;-88
2022/01/25 06:12:30;;;;;;;0.38;0.30;;;0.00;99.90;;;;;;5091320;28;20194;-89
2022/01/25 06:14:57;;;;;;;0.30;0.10;;;-0.10;99.90;;;;;;5090725;28;20298;-88
2022/01/25 06:17:24;;;;;;;0.30;0.10;;;-0.20;99.90;;;;;;5104623;28;20191;-88
2022/01/25 06:19:51;;;;;;;0.30;0.10;;;-0.20;99.90;;;;;;5116821;28;20225;-89
2022/01/25 06:22:19;;;;;;;0.30;0.10;;;-0.10;99.90;;;;;;5104429;28;20653;-88
2022/01/25 06:24:46;;;;;;;0.30;0.10;;;-0.20;99.90;;;;;;5105330;28;20228;-89
2022/01/25 06:27:13;;;;;;;0.50;0.47;;;-0.20;99.90;;;;;;5086988;28;20210;-89
2022/01/25 06:29:40;;;;;;;1.75;1.75;;;-0.30;99.90;;;;;;5078780;28;20228;-89
2022/01/25 06:32:08;;;;;;;1.52;0.43;;;-0.30;99.90;;;;;;5086925;28;20550;-88
2022/01/25 06:34:35;;;;;;;0.30;0.10;;;-0.30;99.90;;;;;;5087261;28;20205;-87
2022/01/25 06:37:02;;;;;;;0.30;0.10;;;-0.30;99.90;;;;;;5092037;28;20260;-88
2022/01/25 06:39:30;;;;;;;0.30;0.10;;;-0.30;99.90;;;;;;5091024;28;20520;-88
2022/01/25 06:41:57;;;;;;;0.57;0.52;;;-0.40;99.90;;;;;;5088966;28;20201;-88
2022/01/25 06:44:24;;;;;;;0.30;0.10;;;-0.40;99.90;;;;;;5089320;28;20219;-89
2022/01/25 06:46:51;;;;;;;0.30;0.10;;;-0.30;99.90;;;;;;5089708;28;20235;-88
2022/01/25 06:49:18;;;;;;;0.30;0.10;;;-0.30;99.90;;;;;;5091302;28;20197;-88
2022/01/25 06:51:45;;;;;;;0.30;0.10;;;-0.30;99.90;;;;;;5088056;28;20820;-87
2022/01/25 06:54:12;;;;;;;0.30;0.10;;;-0.30;99.90;;;;;;5087937;28;20517;-87
2022/01/25 06:56:41;;;;;;;0.30;0.10;;;-0.20;99.90;;;;;;5086902;28;20210;-87
2022/01/25 06:59:08;;;;;;;0.30;0.10;;;-0.30;99.90;;;;;;5091170;28;20228;-88
2022/01/25 07:01:35;;;;;;;0.30;0.10;;;-0.30;99.90;;;;;;5090577;28;20199;-87
2022/01/25 07:04:02;;;;;;;0.30;0.10;;;-0.30;99.90;;;;;;5085639;28;20205;-88
2022/01/25 07:06:29;;;;;;;0.30;0.10;;;-0.30;99.90;;;;;;5087216;28;20230;-91
2022/01/25 07:08:57;;;;;;;0.30;0.10;;;-0.20;99.90;;;;;;5091096;28;20202;-88
2022/01/25 07:11:24;;;;;;;0.30;0.20;;;-0.10;99.90;;;;;;5090471;28;20193;-89
2022/01/25 07:13:52;;;;;;;0.30;0.10;;;-0.20;99.90;;;;;;5090960;28;20244;-90
2022/01/25 07:16:19;;;;;;;1.50;1.15;;;-0.20;99.90;;;;;;5090445;28;20221;-91
2022/01/25 07:18:46;;;;;;;0.30;0.20;;;-0.20;99.90;;;;;;5083730;28;20376;-89
2022/01/25 07:21:13;;;;;;;1.40;1.40;;;-0.20;99.90;;;;;;5090774;28;20192;-90
2022/01/25 07:23:41;;;;;;;0.30;0.20;;;-0.20;99.90;;;;;;5091052;28;20215;-89
2022/01/25 07:26:08;;;;;;;0.30;0.10;;;-0.20;99.90;;;;;;5090095;28;20255;-89
2022/01/25 07:28:36;;;;;;;0.30;0.15;;;-0.20;99.90;;;;;;5088104;28;20255;-90
2022/01/25 07:31:04;;;;;;;0.30;0.10;;;-0.10;99.90;;;;;;5091120;28;20237;-88
2022/01/25 07:33:31;;;;;;;0.30;0.10;;;-0.20;99.90;;;;;;5083549;28;20205;-89
2022/01/25 07:35:59;;;;;;;0.30;0.10;;;-0.10;99.90;;;;;;5091046;28;20264;-89
2022/01/25 07:38:25;;;;;;;0.30;0.10;;;-0.10;99.90;;;;;;5079297;28;20196;-87
2022/01/25 07:40:52;;;;;;;0.30;0.10;;;-0.20;99.90;;;;;;5089849;28;20196;-87
2022/01/25 07:43:20;;;;;;;0.30;0.10;;;-0.10;99.90;;;;;;5090227;28;20199;-87
2022/01/25 07:45:51;;;;;;;0.30;0.10;;;0.00;99.90;;;;;;5084139;28;20277;-88
2022/01/25 07:48:21;;;;;;;0.30;0.10;;;0.00;99.90;;;;;;5081751;28;20301;-89
2022/01/25 07:50:48;;;;;;;0.30;0.10;;;0.00;99.90;;;;;;5076779;28;20206;-89
2022/01/25 07:53:15;;;;;;;0.30;0.10;;;0.00;99.90;;;;;;5090579;28;20195;-90
2022/01/25 07:55:42;;;;;;;0.30;0.10;;;0.00;99.90;;;;;;5103055;28;20210;-87
2022/01/25 07:58:09;;;;;;;0.30;0.10;;;0.00;99.90;;;;;;5111439;28;20290;-87
2022/01/25 08:00:36;;;;;;;0.30;0.10;;;0.00;99.90;;;;;;5105545;28;20273;-87
2022/01/25 08:03:03;;;;;;;0.30;0.10;;;-0.10;99.90;;;;;;5102672;28;20320;-88
2022/01/25 08:05:31;;;;;;;0.30;0.10;;;-0.10;99.90;;;;;;5093994;28;20273;-87
2022/01/25 08:08:00;;;;;;;0.30;0.10;;;-0.10;99.90;;;;;;5092103;28;20245;-87
2022/01/25 08:10:27;;;;;;;0.30;0.10;;;-0.10;99.90;;;;;;5087920;28;20219;-87
2022/01/25 08:12:54;;;;;;;0.30;0.20;;;-0.10;99.90;;;;;;5087915;28;20737;-87
2022/01/25 08:15:24;;;;;;;0.30;0.10;;;-0.10;99.90;;;;;;5086612;28;20636;-87
2022/01/25 08:17:51;;;;;;;0.45;0.40;;;0.00;99.90;;;;;;5079343;28;20288;-87
2022/01/25 08:20:18;;;;;;;0.30;0.10;;;0.00;99.90;;;;;;5090143;28;20256;-87
2022/01/25 08:22:46;;;;;;;0.63;0.63;;;-0.10;99.90;;;;;;5089614;28;20657;-87
2022/01/25 08:25:14;;;;;;;0.30;0.10;;;-0.10;99.90;;;;;;5089853;28;20594;-87
2022/01/25 08:27:41;;;;;;;0.30;0.10;;;0.00;99.90;;;;;;5089884;28;20190;-87
2022/01/25 08:30:09;;;;;;;0.65;0.65;;;0.00;99.90;;;;;;5091417;28;20243;-89
2022/01/25 08:32:36;;;;;;;0.95;0.93;;;0.00;99.90;;;;;;5112040;28;20220;-88
2022/01/25 08:35:03;;;;;;;0.40;0.20;;;0.00;99.90;;;;;;5112420;28;20195;-87
2022/01/25 08:37:30;;;;;;;0.40;0.35;;;0.00;99.90;;;;;;5112810;28;20185;-88
2022/01/25 08:39:58;;;;;;;0.30;0.10;;;0.10;99.90;;;;;;5113229;28;20191;-88
2022/01/25 08:42:25;;;;;;;0.93;0.93;;;0.00;99.90;;;;;;5112473;28;20194;-88
2022/01/25 08:44:52;;;;;;;0.30;0.10;;;0.00;99.90;;;;;;5111067;28;20222;-88
2022/01/25 08:47:19;;;;;;;0.30;0.10;;;0.00;99.90;;;;;;5104923;28;20202;-89
2022/01/25 08:49:46;;;;;;;0.30;0.10;;;0.00;99.90;;;;;;5103442;28;20207;-89
2022/01/25 08:52:13;;;;;;;0.30;0.10;;;0.00;99.90;;;;;;5103331;28;20256;-89
2022/01/25 08:54:40;;;;;;;0.57;0.45;;;0.10;99.90;;;;;;5103345;28;20201;-89
2022/01/25 08:57:09;;;;;;;0.30;0.20;;;0.10;99.90;;;;;;5102759;28;20202;-89
2022/01/25 08:59:36;;;;;;;0.30;0.10;;;0.20;99.90;;;;;;5098916;28;20198;-89
2022/01/25 09:02:04;;;;;;;0.30;0.10;;;0.20;99.90;;;;;;5091720;28;20279;-89
2022/01/25 09:04:31;;;;;;;0.30;0.10;;;0.30;99.90;;;;;;5088208;28;20263;-89
2022/01/25 09:06:58;;;;;;;0.50;0.50;;;0.30;99.90;;;;;;5089181;28;20230;-91
2022/01/25 09:09:25;;;;;;;0.30;0.10;;;0.30;99.90;;;;;;5089904;28;20208;-89
2022/01/25 09:11:52;;;;;;;0.30;0.10;;;0.30;99.90;;;;;;5088400;28;20204;-90
2022/01/25 09:14:21;;;;;;;0.30;0.10;;;0.30;99.90;;;;;;5084031;28;20250;-90
2022/01/25 09:16:48;;;;;;;1.80;0.65;;;0.30;99.90;;;;;;5089267;28;20214;-90
2022/01/25 09:19:15;;;;;;;0.30;0.20;;;0.40;99.90;;;;;;5089884;28;20726;-90
2022/01/25 09:21:42;;;;;;;0.30;0.10;;;0.40;99.90;;;;;;5089077;28;20236;-90
2022/01/25 09:24:10;;;;;;;0.52;0.52;;;0.40;99.90;;;;;;5086676;28;20206;-90
2022/01/25 09:26:37;;;;;;;0.30;0.10;;;0.50;99.90;;;;;;5085049;28;20223;-90
2022/01/25 09:29:04;;;;;;;0.30;0.10;;;0.50;99.90;;;;;;5085686;28;20567;-90
2022/01/25 09:31:33;;;;;;;0.30;0.10;;;0.50;99.90;;;;;;5085274;28;20614;-90
2022/01/25 09:34:00;;;;;;;0.30;0.20;;;0.50;99.90;;;;;;5093044;28;20219;-89
2022/01/25 09:36:27;;;;;;;0.30;0.10;;;0.50;99.90;;;;;;5113619;28;20189;-90
2022/01/25 09:38:55;;;;;;;0.30;0.10;;;0.60;99.90;;;;;;5108805;28;20553;-89
2022/01/25 09:41:22;;;;;;;0.30;0.10;;;0.60;99.90;;;;;;5111832;28;20203;-90
2022/01/25 09:43:49;;;;;;;0.30;0.10;;;0.70;99.90;;;;;;5098036;28;20475;-89
2022/01/25 09:46:17;;;;;;;0.30;0.20;;;0.70;99.90;;;;;;5087781;28;20620;-90
2022/01/25 09:48:46;;;;;;;0.30;0.10;;;0.70;99.90;;;;;;5090335;28;20217;-89
2022/01/25 09:51:13;;;;;;;0.30;0.10;;;0.80;99.90;;;;;;5087097;28;20249;-90
2022/01/25 09:53:41;;;;;;;0.30;0.10;;;0.90;99.90;;;;;;5090883;28;20193;-90
2022/01/25 09:56:08;;;;;;;0.30;0.10;;;1.00;99.90;;;;;;5092422;28;20252;-89
2022/01/25 09:58:36;;;;;;;0.30;0.10;;;0.90;99.90;;;;;;5092632;28;20306;-88
2022/01/25 10:01:05;;;;;;;0.30;0.10;;;1.10;99.90;;;;;;5092941;28;20254;-88
2022/01/25 10:03:36;;;;;;;0.30;0.20;;;1.10;99.90;;;;;;5088430;28;20654;-89
2022/01/25 10:06:13;;;;;;;0.30;0.17;;;0.90;99.90;;;;;;5093069;28;20235;-89
2022/01/25 10:08:40;;;;;;;0.30;0.10;;;1.10;99.90;;;;;;5091374;28;20445;-89
2022/01/25 10:11:08;;;;;;;1.65;0.52;;;1.20;99.90;;;;;;5089236;28;20616;-88
2022/01/25 10:13:37;;;;;;;0.30;0.20;;;1.20;99.90;;;;;;5092578;28;20272;-89
2022/01/25 10:16:07;;;;;;;0.30;0.10;;;1.20;99.90;;;;;;5090086;28;20211;-89
2022/01/25 10:18:38;;;;;;;0.30;0.10;;;1.00;99.90;;;;;;5089432;28;20511;-89
2022/01/25 10:21:12;;;;;;;0.30;0.10;;;1.00;99.90;;;;;;5092557;28;20785;-89
2022/01/25 10:23:40;;;;;;;0.30;0.20;;;1.10;99.90;;;;;;5092699;28;20521;-89
2022/01/25 10:26:08;;;;;;;0.30;0.10;;;1.10;99.90;;;;;;5091605;28;20221;-89
2022/01/25 10:28:35;;;;;;;0.70;0.40;;;1.10;99.90;;;;;;5089562;28;20447;-90
2022/01/25 10:31:05;;;;;;;0.30;0.10;;;1.10;99.90;;;;;;5091532;28;20459;-90
2022/01/25 10:33:38;;;;;;;0.40;0.30;;;1.10;99.90;;;;;;5089524;28;20828;-90
2022/01/25 10:36:13;;;;;;;0.30;0.10;;;1.30;99.90;;;;;;5091989;28;20454;-89
2022/01/25 10:38:42;;;;;;;0.87;0.53;;;1.40;99.90;;;;;;5091611;28;20507;-89
2022/01/25 10:41:11;;;;;;;0.30;0.20;;;1.50;99.90;;;;;;5088186;28;20480;-90
2022/01/25 10:43:40;;;;;;;0.30;0.10;;;1.50;99.90;;;;;;5091424;28;20438;-89
2022/01/25 10:46:10;;;;;;;0.30;0.10;;;1.50;99.90;;;;;;5090840;28;20546;-90
2022/01/25 10:48:38;;;;;;;0.30;0.10;;;1.60;99.90;;;;;;5091104;28;20469;-89
2022/01/25 10:51:07;;;;;;;0.30;0.10;;;1.50;99.90;;;;;;5091182;28;20454;-89
2022/01/25 10:53:36;;;;;;;0.30;0.10;;;1.60;99.90;;;;;;5086431;28;20941;-90
2022/01/25 10:56:05;;;;;;;0.30;0.10;;;1.50;99.90;;;;;;5092005;28;20490;-89
2022/01/25 10:58:36;;;;;;;0.30;0.10;;;1.60;99.90;;;;;;5091544;28;20629;-90
2022/01/25 11:01:03;;;;;;;0.30;0.10;;;1.40;99.90;;;;;;5091703;28;20511;-89
2022/01/25 11:03:33;;;;;;;0.30;0.10;;;1.50;99.90;;;;;;5090951;28;20564;-89
2022/01/25 11:06:11;;;;;;;0.30;0.10;;;1.70;99.90;;;;;;5087953;28;21030;-90
2022/01/25 11:08:41;;;;;;;0.40;0.30;;;1.80;99.90;;;;;;5089458;28;20471;-90
2022/01/25 11:11:11;;;;;;;0.30;0.10;;;1.90;99.90;;;;;;5091821;28;20434;-90
2022/01/25 11:13:42;;;;;;;0.30;0.10;;;1.80;99.90;;;;;;5115070;28;20441;-89
2022/01/25 11:16:11;;;;;;;0.30;0.10;;;1.70;99.90;;;;;;5110282;28;20451;-90
2022/01/25 11:18:39;;;;;;;0.30;0.10;;;1.80;99.90;;;;;;5106532;28;20463;-89
2022/01/25 11:21:07;;;;;;;0.30;0.10;;;1.70;99.90;;;;;;5102361;28;20516;-90
2022/01/25 11:23:37;;;;;;;0.30;0.10;;;1.90;99.90;;;;;;5082625;28;20463;-90
2022/01/25 11:26:07;;;;;;;0.30;0.10;;;1.90;99.90;;;;;;5085234;28;21049;-89
2022/01/25 11:28:36;;;;;;;0.30;0.10;;;1.90;99.90;;;;;;5088108;28;20917;-89
2022/01/25 11:31:07;;;;;;;0.30;0.10;;;1.90;99.90;;;;;;5091473;28;20443;-91
2022/01/25 11:33:36;;;;;;;0.60;0.60;;;2.00;99.90;;;;;;5088676;28;20512;-89
2022/01/25 11:36:08;;;;;;;0.30;0.10;;;1.90;99.90;;;;;;5090890;28;20546;-90
2022/01/25 11:38:41;;;;;;;1.67;0.63;;;1.70;99.90;;;;;;5090900;28;20446;-90
2022/01/25 11:41:15;;;;;;;0.30;0.20;;;1.70;99.90;;;;;;5087523;28;20464;-90
2022/01/25 11:43:44;;;;;;;0.40;0.20;;;1.70;99.90;;;;;;5089032;28;20204;-89
2022/01/25 11:46:11;;;;;;;0.40;0.20;;;1.80;99.90;;;;;;5086943;28;20465;-90
2022/01/25 11:48:44;;;;;;;0.30;0.20;;;1.80;99.90;;;;;;5088608;28;20203;-90
2022/01/25 11:51:17;;;;;;;0.30;0.20;;;1.80;99.90;;;;;;5087400;28;20262;-89
2022/01/25 11:53:46;;;;;;;0.90;0.83;;;1.80;99.90;;;;;;5090716;28;20489;-90
2022/01/25 11:56:16;;;;;;;0.30;0.10;;;1.90;99.90;;;;;;5087546;28;20525;-89
2022/01/25 11:58:44;;;;;;;0.30;0.10;;;1.80;99.90;;;;;;5091931;28;20944;-89
2022/01/25 12:01:20;;;;;;;0.30;0.10;;;1.80;99.90;;;;;;5086656;28;20702;-90
2022/01/25 12:03:50;;;;;;;1.33;0.40;;;1.80;99.90;;;;;;5089140;28;20214;-90
2022/01/25 12:06:21;;;;;;;0.30;0.20;;;1.70;99.90;;;;;;5088677;28;20555;-89
2022/01/25 12:09:09;;;;;;;0.30;0.20;;;1.70;99.90;;;;;;5089443;28;20203;-89
2022/01/25 12:11:44;;;;;;;1.00;0.83;;;1.60;99.90;;;;;;5088538;28;20627;-90
2022/01/25 12:14:18;;;;;;;0.30;0.10;;;1.50;99.90;;;;;;5087459;28;20484;-89
2022/01/25 12:16:46;;;;;;;0.35;0.20;;;1.50;99.90;;;;;;5089348;28;20207;-89
2022/01/25 12:19:15;;;;;;;0.30;0.20;;;1.50;99.90;;;;;;5086269;28;20261;-90
2022/01/25 12:22:15;;;;;;;0.77;0.50;;;1.60;99.90;;;;;;5089767;28;20443;-90
2022/01/25 12:24:59;;;;;;;0.30;0.10;;;1.60;99.90;;;;;;5088876;28;20466;-89
2022/01/25 12:27:42;;;;;;;0.50;0.50;;;1.60;99.90;;;;;;5088453;28;20222;-90
2022/01/25 12:30:12;;;;;;;0.30;0.10;;;1.50;99.90;;;;;;5089504;28;20451;-89
2022/01/25 12:32:50;;;;;;;0.30;0.10;;;1.50;99.90;;;;;;5089798;28;20948;-89
2022/01/25 12:35:19;;;;;;;0.30;0.10;;;1.60;99.90;;;;;;5087437;28;20457;-89
2022/01/25 12:38:07;;;;;;;0.30;0.20;;;1.60;99.90;;;;;;5089793;28;20799;-90
2022/01/25 12:41:00;;;;;;;0.30;0.10;;;1.70;99.90;;;;;;5088409;28;21061;-90
2022/01/25 12:43:33;;;;;;;0.30;0.10;;;1.70;99.90;;;;;;5089151;28;20451;-90
2022/01/25 12:46:03;;;;;;;0.30;0.10;;;1.70;99.90;;;;;;5089247;28;20515;-90
2022/01/25 12:48:32;;;;;;;1.03;0.30;;;1.70;99.90;;;;;;5089172;28;20790;-90
2022/01/25 12:51:02;;;;;;;0.97;0.97;;;1.70;99.90;;;;;;5100368;28;20439;-90
2022/01/25 12:53:31;;;;;;;0.30;0.10;;;1.60;99.90;;;;;;5114451;28;20447;-89
2022/01/25 12:56:00;;;;;;;0.30;0.10;;;1.60;99.90;;;;;;5105299;28;20446;-88
2022/01/25 12:58:32;;;;;;;0.80;0.80;;;1.60;99.90;;;;;;5106254;28;20235;-89
2022/01/25 13:01:00;;;;;;;0.30;0.10;;;1.60;99.90;;;;;;5089652;28;20505;-89
2022/01/25 13:03:31;;;;;;;0.40;0.30;;;1.50;99.90;;;;;;5087973;28;20446;-90
2022/01/25 13:06:02;;;;;;;1.50;0.37;;;1.30;99.90;;;;;;5092581;28;20944;-89
2022/01/25 13:08:34;;;;;;;1.47;0.67;;;1.40;99.90;;;;;;5091288;28;20489;-90
2022/01/25 13:11:21;;;;;;;0.30;0.10;;;1.30;99.90;;;;;;5094758;28;20445;-89
2022/01/25 13:14:14;;;;;;;0.30;0.10;;;1.30;99.90;;;;;;5095093;28;20272;-89
2022/01/25 13:16:48;;;;;;;0.30;0.10;;;1.30;99.90;;;;;;5089995;28;20593;-89
2022/01/25 13:19:18;;;;;;;0.30;0.10;;;1.40;99.90;;;;;;5091343;28;20783;-89
2022/01/25 13:21:50;;;;;;;0.30;0.10;;;1.30;99.90;;;;;;5093214;28;20207;-89
2022/01/25 13:24:20;;;;;;;0.30;0.10;;;1.30;99.90;;;;;;5092354;28;20290;-89
2022/01/25 13:27:00;;;;;;;0.30;0.10;;;1.30;99.90;;;;;;5093287;28;20224;-89
2022/01/25 13:32:21;;;;;;;0.30;0.10;;;1.40;99.90;;;;;;5092329;28;20229;-89
2022/01/25 13:35:14;;;;;;;0.40;0.20;;;1.40;99.90;;;;;;5089695;28;20985;-89
2022/01/25 13:37:42;;;;;;;0.30;0.10;;;1.40;99.90;;;;;;5091460;28;20826;-90
2022/01/25 13:40:12;;;;;;;0.30;0.20;;;1.40;99.90;;;;;;5091889;28;20459;-90
2022/01/25 13:42:44;;;;;;;0.53;0.53;;;1.40;99.90;;;;;;5091553;28;20204;-89
2022/01/25 13:48:02;;;;;;;0.30;0.10;;;1.40;99.90;;;;;;5090290;28;20488;-89
2022/01/25 13:50:30;;;;;;;0.30;0.20;;;1.30;99.90;;;;;;5093013;28;20204;-89
2022/01/25 13:52:57;;;;;;;0.30;0.10;;;1.30;99.90;;;;;;5091128;28;20804;-90
2022/01/25 13:55:24;;;;;;;0.30;0.10;;;1.20;99.90;;;;;;5091307;28;20516;-89
2022/01/25 13:57:51;;;;;;;0.30;0.10;;;1.30;99.90;;;;;;5092173;28;20314;-90
2022/01/25 14:00:21;;;;;;;0.30;0.10;;;1.30;99.90;;;;;;5091200;28;20193;-90
2022/01/25 14:02:50;;;;;;;0.30;0.10;;;1.30;99.90;;;;;;5092164;28;20257;-90
2022/01/25 14:05:18;;;;;;;1.07;0.53;;;1.30;99.90;;;;;;5092700;28;20463;-89
2022/01/25 14:07:49;;;;;;;0.30;0.20;;;1.40;99.90;;;;;;5093204;28;20486;-89
2022/01/25 14:10:24;;;;;;;0.30;0.10;;;1.40;99.90;;;;;;5091722;28;20510;-89
2022/01/25 14:23:54;;;;;;;0.30;0.10;;;1.50;99.90;;;;;;5089442;28;20464;-90
2022/01/25 14:26:27;;;;;;;0.40;0.30;;;1.40;99.90;;;;;;5092266;28;20193;-90
2022/01/25 14:28:55;;;;;;;0.30;0.10;;;1.40;99.90;;;;;;5104160;28;20450;-90
2022/01/25 14:31:24;;;;;;;0.30;0.10;;;1.40;99.90;;;;;;5113131;28;20199;-91